createdAt,value
2019-03-01T00:01:31.760Z,81.70
2019-03-01T00:04:05.543Z,81.80
2019-03-01T00:06:45.798Z,82.10
2019-03-01T00:09:59.794Z,82.10
2019-03-01T00:13:10.643Z,81.60
2019-03-01T00:16:12.653Z,81.10
2019-03-01T00:19:41.575Z,90.90
2019-03-01T00:23:10.085Z,83.90
2019-03-01T00:26:23.563Z,86.40
2019-03-01T00:29:39.450Z,84.20
2019-03-01T00:32:40.891Z,83.00
2019-03-01T00:35:51.667Z,83.00
2019-03-01T00:39:01.197Z,82.50
2019-03-01T00:42:08.658Z,82.40
2019-03-01T00:44:42.693Z,84.30
2019-03-01T00:47:12.675Z,82.80
2019-03-01T00:49:42.700Z,82.50
2019-03-01T00:52:13.197Z,82.20
2019-03-01T00:54:42.858Z,82.30
2019-03-01T00:57:13.098Z,82.30
2019-03-01T00:59:43.028Z,82.00
2019-03-01T01:02:12.784Z,82.20
2019-03-01T01:04:42.620Z,82.20
2019-03-01T01:07:12.337Z,82.30
2019-03-01T01:09:42.444Z,82.20
2019-03-01T01:12:12.475Z,82.10
2019-03-01T01:14:42.203Z,82.50
2019-03-01T01:17:12.336Z,81.90
2019-03-01T01:19:42.142Z,81.50
2019-03-01T01:22:11.893Z,80.90
2019-03-01T01:24:41.871Z,81.40
2019-03-01T01:27:11.651Z,81.90
2019-03-01T01:29:42.002Z,82.00
2019-03-01T01:32:11.821Z,82.10
2019-03-01T01:34:41.530Z,81.90
2019-03-01T01:37:11.186Z,82.20
2019-03-01T01:39:40.975Z,81.80
2019-03-01T01:42:11.375Z,81.00
2019-03-01T01:44:41.655Z,81.10
2019-03-01T01:47:11.545Z,81.60
2019-03-01T01:49:42.637Z,81.70
2019-03-01T01:52:13.030Z,82.00
2019-03-01T01:54:42.825Z,81.40
2019-03-01T01:57:12.529Z,81.50
2019-03-01T01:59:42.307Z,82.10
2019-03-01T02:02:12.377Z,82.30
2019-03-01T02:04:42.277Z,81.90
2019-03-01T02:07:12.374Z,81.90
2019-03-01T02:09:42.172Z,82.40
2019-03-01T02:12:12.438Z,81.50
2019-03-01T02:14:42.045Z,90.10
2019-03-01T02:17:11.711Z,83.30
2019-03-01T02:19:41.374Z,82.50
2019-03-01T02:22:11.130Z,93.40
2019-03-01T02:24:41.309Z,92.70
2019-03-01T02:27:27.777Z,87.30
2019-03-01T02:29:58.146Z,84.60
2019-03-01T02:32:39.941Z,83.70
2019-03-01T02:35:12.205Z,82.30
2019-03-01T02:37:42.147Z,82.60
2019-03-01T02:40:14.287Z,82.40
2019-03-01T02:42:43.926Z,82.40
2019-03-01T02:45:15.911Z,81.60
2019-03-01T02:47:46.214Z,82.30
2019-03-01T02:50:17.106Z,81.80
2019-03-01T02:52:47.317Z,85.10
2019-03-01T02:55:17.816Z,83.10
2019-03-01T02:57:47.652Z,85.20
2019-03-01T03:00:22.462Z,83.30
2019-03-01T03:02:52.179Z,85.10
2019-03-01T03:05:25.521Z,82.30
2019-03-01T03:08:00.140Z,83.00
2019-03-01T03:10:30.308Z,82.20
2019-03-01T03:13:10.370Z,89.60
2019-03-01T03:15:47.974Z,85.20
2019-03-01T03:18:17.633Z,84.10
2019-03-01T03:20:47.428Z,83.00
2019-03-01T03:23:17.168Z,91.30
2019-03-01T03:25:47.051Z,91.50
2019-03-01T03:28:16.689Z,95.80
2019-03-01T03:30:46.346Z,96.40
2019-03-01T03:33:16.097Z,94.50
2019-03-01T03:35:45.834Z,96.20
2019-03-01T03:38:15.745Z,98.50
2019-03-01T03:40:45.461Z,98.50
2019-03-01T03:43:15.632Z,96.30
2019-03-01T03:45:45.396Z,90.40
2019-03-01T03:48:15.454Z,88.10
2019-03-01T03:50:45.357Z,87.60
2019-03-01T03:53:15.356Z,86.50
2019-03-01T03:55:44.967Z,84.70
2019-03-01T03:58:14.750Z,89.40
2019-03-01T04:00:44.483Z,85.60
2019-03-01T04:03:14.177Z,93.00
2019-03-01T04:05:44.142Z,96.50
2019-03-01T04:08:14.534Z,98.40
2019-03-01T04:10:44.798Z,98.40
2019-03-01T04:13:16.722Z,98.10
2019-03-01T04:15:48.124Z,96.50
2019-03-01T04:18:18.209Z,97.80
2019-03-01T04:20:49.135Z,97.50
2019-03-01T04:23:20.680Z,95.00
2019-03-01T04:25:50.917Z,93.70
2019-03-01T04:28:21.061Z,95.20
2019-03-01T04:30:51.339Z,97.20
2019-03-01T04:33:21.960Z,95.10
2019-03-01T04:35:52.780Z,98.60
2019-03-01T04:38:22.826Z,98.10
2019-03-01T04:41:11.780Z,98.50
2019-03-01T04:43:41.531Z,98.70
2019-03-01T04:46:11.449Z,99.60
2019-03-01T04:48:41.222Z,99.10
2019-03-01T04:51:11.179Z,99.00
2019-03-01T04:53:41.000Z,98.50
2019-03-01T04:56:11.210Z,98.90
2019-03-01T04:58:42.131Z,99.70
2019-03-01T05:01:12.031Z,99.20
2019-03-01T05:03:41.728Z,98.40
2019-03-01T05:06:11.773Z,98.40
2019-03-01T05:08:41.916Z,99.00
2019-03-01T05:11:11.563Z,98.90
2019-03-01T05:13:41.225Z,99.30
2019-03-01T05:16:12.477Z,99.40
2019-03-01T05:18:42.383Z,99.50
2019-03-01T05:21:12.188Z,97.00
2019-03-01T05:23:41.990Z,98.20
2019-03-01T05:26:11.796Z,98.30
2019-03-01T05:28:41.606Z,97.20
2019-03-01T05:31:12.418Z,98.90
2019-03-01T05:33:42.173Z,99.90
2019-03-01T05:36:12.185Z,99.80
2019-03-01T05:38:41.938Z,97.60
2019-03-01T05:41:12.761Z,95.70
2019-03-01T05:43:43.541Z,98.80
2019-03-01T05:46:13.624Z,98.90
2019-03-01T05:48:43.508Z,98.40
2019-03-01T05:51:13.250Z,98.00
2019-03-01T05:53:43.172Z,97.70
2019-03-01T05:56:13.483Z,98.40
2019-03-01T05:58:46.392Z,98.00
2019-03-01T06:01:23.697Z,99.10
2019-03-01T06:04:24.528Z,98.40
2019-03-01T06:07:31.068Z,96.80
2019-03-01T06:10:48.134Z,97.60
2019-03-01T06:13:53.760Z,98.40
2019-03-01T06:17:11.391Z,98.90
2019-03-01T06:20:21.976Z,98.80
2019-03-01T06:23:25.207Z,95.90
2019-03-01T06:26:13.648Z,95.80
2019-03-01T06:29:09.880Z,98.20
2019-03-01T06:32:36.798Z,97.70
2019-03-01T06:35:40.575Z,97.20
2019-03-01T06:39:20.499Z,98.80
2019-03-01T06:42:42.157Z,99.30
2019-03-01T06:46:09.776Z,99.80
2019-03-01T06:48:48.351Z,99.50
2019-03-01T06:51:29.130Z,98.90
2019-03-01T06:53:58.341Z,97.90
2019-03-01T06:56:27.957Z,96.60
2019-03-01T06:58:59.946Z,97.60
2019-03-01T07:01:36.460Z,98.40
2019-03-01T07:04:15.339Z,96.70
2019-03-01T07:06:45.457Z,96.80
2019-03-01T07:09:15.258Z,97.50
2019-03-01T07:11:45.003Z,96.30
2019-03-01T07:14:15.081Z,97.10
2019-03-01T07:16:45.131Z,98.30
2019-03-01T07:19:15.090Z,98.20
2019-03-01T07:21:44.786Z,96.90
2019-03-01T07:24:14.854Z,95.50
2019-03-01T07:26:46.539Z,97.20
2019-03-01T07:29:16.247Z,98.10
2019-03-01T07:31:45.855Z,96.50
2019-03-01T07:34:15.553Z,96.80
2019-03-01T07:36:46.332Z,97.80
2019-03-01T07:39:16.666Z,98.30
2019-03-01T07:41:46.349Z,98.60
2019-03-01T07:44:16.325Z,99.80
2019-03-01T07:46:52.925Z,98.00
2019-03-01T07:49:17.671Z,99.10
2019-03-01T07:51:47.743Z,99.00
2019-03-01T07:54:18.048Z,98.30
2019-03-01T07:56:48.128Z,99.10
2019-03-01T07:59:17.734Z,98.90
2019-03-01T08:01:47.429Z,99.40
2019-03-01T08:04:23.794Z,97.70
2019-03-01T08:06:52.989Z,97.50
2019-03-01T08:09:22.835Z,96.80
2019-03-01T08:11:54.049Z,98.90
2019-03-01T08:14:28.034Z,96.90
2019-03-01T08:16:56.814Z,97.60
2019-03-01T08:19:27.105Z,98.00
2019-03-01T08:21:56.787Z,95.60
2019-03-01T08:24:26.559Z,95.90
2019-03-01T08:26:57.107Z,96.00
2019-03-01T08:29:26.780Z,96.30
2019-03-01T08:31:56.729Z,95.10
2019-03-01T08:34:26.872Z,96.40
2019-03-01T08:36:56.796Z,96.90
2019-03-01T08:39:26.488Z,97.00
2019-03-01T08:42:00.245Z,95.60
2019-03-01T08:44:27.563Z,93.80
2019-03-01T08:47:20.351Z,94.90
2019-03-01T08:49:47.872Z,93.60
2019-03-01T08:52:17.601Z,94.00
2019-03-01T08:54:47.299Z,94.40
2019-03-01T08:57:16.989Z,93.80
2019-03-01T08:59:46.680Z,93.10
2019-03-01T09:02:16.468Z,94.70
2019-03-01T09:04:50.915Z,94.80
2019-03-01T09:07:17.831Z,94.80
2019-03-01T09:09:47.612Z,93.10
2019-03-01T09:12:17.315Z,94.80
2019-03-01T09:14:46.994Z,94.10
2019-03-01T09:17:16.606Z,93.50
2019-03-01T09:19:46.391Z,93.90
2019-03-01T09:22:15.995Z,93.50
2019-03-01T09:24:46.433Z,93.70
2019-03-01T09:27:16.018Z,91.80
2019-03-01T09:29:45.648Z,92.60
2019-03-01T09:32:15.279Z,92.90
2019-03-01T09:34:48.065Z,92.90
2019-03-01T09:37:17.733Z,93.70
2019-03-01T09:39:50.438Z,91.90
2019-03-01T09:42:18.905Z,92.20
2019-03-01T09:44:48.708Z,92.50
2019-03-01T09:47:18.795Z,92.20
2019-03-01T09:49:48.804Z,92.30
2019-03-01T09:52:20.368Z,91.80
2019-03-01T09:54:49.884Z,93.10
2019-03-01T09:57:19.525Z,91.50
2019-03-01T09:59:49.184Z,92.60
2019-03-01T10:02:19.089Z,92.20
2019-03-01T10:04:48.829Z,91.20
2019-03-01T10:07:18.514Z,89.50
2019-03-01T10:09:48.193Z,89.00
2019-03-01T10:12:17.996Z,89.00
2019-03-01T10:14:48.889Z,89.90
2019-03-01T10:17:18.574Z,87.00
2019-03-01T10:19:48.331Z,88.10
2019-03-01T10:22:18.501Z,87.30
2019-03-01T10:24:48.453Z,87.50
2019-03-01T10:27:18.119Z,87.90
2019-03-01T10:29:47.812Z,87.10
2019-03-01T10:32:17.631Z,87.70
2019-03-01T10:34:47.306Z,86.40
2019-03-01T10:37:17.406Z,86.00
2019-03-01T10:39:55.320Z,86.80
2019-03-01T10:42:19.489Z,87.90
2019-03-01T10:44:49.212Z,85.70
2019-03-01T10:47:18.939Z,87.10
2019-03-01T10:49:48.639Z,88.40
2019-03-01T10:52:18.431Z,86.60
2019-03-01T10:54:48.254Z,84.10
2019-03-01T10:57:17.931Z,84.30
2019-03-01T10:59:47.909Z,86.80
2019-03-01T11:02:18.766Z,84.90
2019-03-01T11:04:48.890Z,87.20
2019-03-01T11:07:18.765Z,84.20
2019-03-01T11:09:48.801Z,84.00
2019-03-01T11:12:18.563Z,85.10
2019-03-01T11:14:48.714Z,82.60
2019-03-01T11:17:18.336Z,83.20
2019-03-01T11:19:48.148Z,84.50
2019-03-01T11:22:21.304Z,81.90
2019-03-01T11:24:52.156Z,79.80
2019-03-01T11:27:22.215Z,79.00
2019-03-01T11:29:52.019Z,80.00
2019-03-01T11:32:21.844Z,80.00
2019-03-01T11:34:51.434Z,79.00
2019-03-01T11:37:21.224Z,79.90
2019-03-01T11:39:50.852Z,83.10
2019-03-01T11:42:20.640Z,77.90
2019-03-01T11:44:50.559Z,78.70
2019-03-01T11:47:20.348Z,83.40
2019-03-01T11:49:50.407Z,82.70
2019-03-01T11:52:20.709Z,76.80
2019-03-01T11:54:50.784Z,77.70
2019-03-01T11:57:20.749Z,81.40
2019-03-01T11:59:50.642Z,77.80
2019-03-01T12:02:21.188Z,78.20
2019-03-01T12:04:50.946Z,79.20
2019-03-01T12:07:20.741Z,76.60
2019-03-01T12:09:50.837Z,76.50
2019-03-01T12:12:20.963Z,77.50
2019-03-01T12:14:51.053Z,74.20
2019-03-01T12:17:21.044Z,79.00
2019-03-01T12:19:50.711Z,74.40
2019-03-01T12:22:20.571Z,74.90
2019-03-01T12:24:50.578Z,77.20
2019-03-01T12:27:20.533Z,75.90
2019-03-01T12:29:50.676Z,75.00
2019-03-01T12:32:22.687Z,79.70
2019-03-01T12:35:04.349Z,74.70
2019-03-01T12:37:34.542Z,76.20
2019-03-01T12:40:04.295Z,75.30
2019-03-01T12:42:34.134Z,77.30
2019-03-01T12:45:03.947Z,74.00
2019-03-01T12:47:33.723Z,75.00
2019-03-01T12:50:04.112Z,76.90
2019-03-01T12:52:33.787Z,75.50
2019-03-01T12:55:03.716Z,74.60
2019-03-01T12:57:33.491Z,75.70
2019-03-01T13:00:03.221Z,75.50
2019-03-01T13:02:58.044Z,75.20
2019-03-01T13:05:29.262Z,74.60
2019-03-01T13:07:59.053Z,72.60
2019-03-01T13:10:29.440Z,73.10
2019-03-01T13:13:02.096Z,74.60
2019-03-01T13:15:30.359Z,72.60
2019-03-01T13:18:00.432Z,72.70
2019-03-01T13:20:30.147Z,72.40
2019-03-01T13:23:00.955Z,77.70
2019-03-01T13:25:30.935Z,75.70
2019-03-01T13:28:46.979Z,71.40
2019-03-01T13:31:17.286Z,71.20
2019-03-01T13:33:46.954Z,73.60
2019-03-01T13:36:17.029Z,72.90
2019-03-01T13:38:47.079Z,74.80
2019-03-01T13:41:16.764Z,74.70
2019-03-01T13:43:46.636Z,72.10
2019-03-01T13:46:16.350Z,72.30
2019-03-01T13:48:46.493Z,72.30
2019-03-01T13:51:17.225Z,70.20
2019-03-01T13:53:49.147Z,70.40
2019-03-01T13:56:18.948Z,73.00
2019-03-01T13:59:07.660Z,73.20
2019-03-01T14:01:37.707Z,74.40
2019-03-01T14:04:09.925Z,70.40
2019-03-01T14:06:39.674Z,75.20
2019-03-01T14:09:14.383Z,71.10
2019-03-01T14:11:44.233Z,73.50
2019-03-01T14:14:14.130Z,71.50
2019-03-01T14:16:45.914Z,70.90
2019-03-01T14:19:16.540Z,67.00
2019-03-01T14:21:46.080Z,71.70
2019-03-01T14:24:15.858Z,69.60
2019-03-01T14:26:45.438Z,74.70
2019-03-01T14:29:16.030Z,63.90
2019-03-01T14:31:46.454Z,75.00
2019-03-01T14:34:16.185Z,70.80
2019-03-01T14:36:46.103Z,69.10
2019-03-01T14:39:18.023Z,73.30
2019-03-01T14:41:48.147Z,67.60
2019-03-01T14:44:18.858Z,72.20
2019-03-01T14:46:48.905Z,60.90
2019-03-01T14:49:21.655Z,67.00
2019-03-01T14:51:50.160Z,68.80
2019-03-01T14:54:21.229Z,67.00
2019-03-01T14:56:58.633Z,67.90
2019-03-01T14:59:37.996Z,72.50
2019-03-01T15:02:20.780Z,68.60
2019-03-01T15:04:50.558Z,66.00
2019-03-01T15:07:20.622Z,65.30
2019-03-01T15:09:53.365Z,67.80
2019-03-01T15:12:22.349Z,67.60
2019-03-01T15:14:52.584Z,69.40
2019-03-01T15:17:22.684Z,70.10
2019-03-01T15:19:52.552Z,69.80
2019-03-01T15:22:22.277Z,68.70
2019-03-01T15:24:52.026Z,70.30
2019-03-01T15:27:21.925Z,70.00
2019-03-01T15:29:51.873Z,66.30
2019-03-01T15:32:21.536Z,66.50
2019-03-01T15:34:51.866Z,69.20
2019-03-01T15:37:21.509Z,64.60
2019-03-01T15:39:54.106Z,67.50
2019-03-01T15:42:22.827Z,70.10
2019-03-01T15:44:52.600Z,67.60
2019-03-01T15:47:23.826Z,68.30
2019-03-01T15:49:53.650Z,67.40
2019-03-01T15:52:23.725Z,66.00
2019-03-01T15:54:53.406Z,70.10
2019-03-01T15:57:23.156Z,68.00
2019-03-01T15:59:53.019Z,66.40
2019-03-01T16:02:23.012Z,66.80
2019-03-01T16:04:52.634Z,67.20
2019-03-01T16:07:22.641Z,67.30
2019-03-01T16:09:52.455Z,70.70
2019-03-01T16:12:22.100Z,70.10
2019-03-01T16:14:52.436Z,70.50
2019-03-01T16:17:24.702Z,68.30
2019-03-01T16:19:53.740Z,69.80
2019-03-01T16:22:23.560Z,71.70
2019-03-01T16:24:53.234Z,70.50
2019-03-01T16:27:22.957Z,67.20
2019-03-01T16:29:52.790Z,71.80
2019-03-01T16:32:22.455Z,73.40
2019-03-01T16:34:52.081Z,73.30
2019-03-01T16:37:22.688Z,69.80
2019-03-01T16:39:56.186Z,73.60
2019-03-01T16:42:24.229Z,70.20
2019-03-01T16:44:53.979Z,73.00
2019-03-01T16:47:23.718Z,74.50
2019-03-01T16:49:54.232Z,75.30
2019-03-01T16:52:26.468Z,73.40
2019-03-01T16:54:55.339Z,72.70
2019-03-01T16:57:25.070Z,71.80
2019-03-01T16:59:54.756Z,73.10
2019-03-01T17:02:24.367Z,74.60
2019-03-01T17:04:54.099Z,74.30
2019-03-01T17:07:25.134Z,73.70
2019-03-01T17:09:55.631Z,74.80
2019-03-01T17:12:25.223Z,74.90
2019-03-01T17:14:54.978Z,74.00
2019-03-01T17:17:25.113Z,76.40
2019-03-01T17:19:55.252Z,75.10
2019-03-01T17:22:26.391Z,75.00
2019-03-01T17:24:56.223Z,77.90
2019-03-01T17:27:25.796Z,77.20
2019-03-01T17:29:55.489Z,75.50
2019-03-01T17:32:25.587Z,76.30
2019-03-01T17:34:55.331Z,77.40
2019-03-01T17:37:25.827Z,76.60
2019-03-01T17:39:57.688Z,78.00
2019-03-01T17:42:29.935Z,76.50
2019-03-01T17:44:59.654Z,75.40
2019-03-01T17:47:30.754Z,76.80
2019-03-01T17:50:00.559Z,76.20
2019-03-01T17:52:30.615Z,76.90
2019-03-01T17:55:02.752Z,76.80
2019-03-01T17:57:33.790Z,76.30
2019-03-01T18:00:03.862Z,75.30
2019-03-01T18:02:33.681Z,76.00
2019-03-01T18:05:03.513Z,77.50
2019-03-01T18:07:33.408Z,75.70
2019-03-01T18:10:03.147Z,75.70
2019-03-01T18:12:33.113Z,76.00
2019-03-01T18:15:02.748Z,77.90
2019-03-01T18:17:32.993Z,77.40
2019-03-01T18:20:04.337Z,75.20
2019-03-01T18:22:34.637Z,76.60
2019-03-01T18:25:04.940Z,75.30
2019-03-01T18:27:34.900Z,77.40
2019-03-01T18:30:05.994Z,75.60
2019-03-01T18:32:36.231Z,76.90
2019-03-01T18:35:08.016Z,76.90
2019-03-01T18:37:38.863Z,76.40
2019-03-01T18:41:24.020Z,77.30
2019-03-01T18:44:17.260Z,75.50
2019-03-01T18:47:23.961Z,74.40
2019-03-01T18:50:35.390Z,77.40
2019-03-01T18:53:25.049Z,77.10
2019-03-01T19:03:45.848Z,76.80
2019-03-01T19:06:16.226Z,74.00
2019-03-01T19:08:45.256Z,75.50
2019-03-01T19:11:14.907Z,75.10
2019-03-01T19:13:44.672Z,75.90
2019-03-01T19:16:14.494Z,77.60
2019-03-01T19:18:44.290Z,75.40
2019-03-01T19:21:17.323Z,75.70
2019-03-01T19:23:48.192Z,76.80
2019-03-01T19:26:18.158Z,74.70
2019-03-01T19:28:48.689Z,75.50
2019-03-01T19:31:18.354Z,75.80
2019-03-01T19:33:49.888Z,76.40
2019-03-01T19:36:19.554Z,74.00
2019-03-01T19:38:50.785Z,75.60
2019-03-01T19:41:22.963Z,74.70
2019-03-01T19:43:57.397Z,73.10
2019-03-01T19:46:23.876Z,74.30
2019-03-01T19:48:54.339Z,73.20
2019-03-01T19:51:24.128Z,73.90
2019-03-01T19:53:57.353Z,75.00
2019-03-01T19:56:26.970Z,76.20
2019-03-01T19:58:56.941Z,74.20
2019-03-01T20:01:26.656Z,73.80
2019-03-01T20:03:57.215Z,73.90
2019-03-01T20:06:27.075Z,74.00
2019-03-01T20:08:57.270Z,74.80
2019-03-01T20:11:27.553Z,74.70
2019-03-01T20:13:58.050Z,75.10
2019-03-01T20:16:28.683Z,75.70
2019-03-01T20:18:59.383Z,75.30
2019-03-01T20:21:31.619Z,74.20
2019-03-01T20:24:01.728Z,75.90
2019-03-01T20:26:33.866Z,74.30
2019-03-01T20:29:04.193Z,73.40
2019-03-01T20:31:36.773Z,74.30
2019-03-01T20:34:05.672Z,76.30
2019-03-01T20:36:35.920Z,75.60
2019-03-01T20:39:06.730Z,75.60
2019-03-01T20:41:40.120Z,76.20
2019-03-01T20:44:08.625Z,74.90
2019-03-01T20:46:40.121Z,75.90
2019-03-01T20:49:10.852Z,75.10
2019-03-01T20:51:40.650Z,73.90
2019-03-01T20:54:10.492Z,73.90
2019-03-01T20:56:40.226Z,74.10
2019-03-01T20:59:12.620Z,75.60
2019-03-01T21:01:41.601Z,74.90
2019-03-01T21:04:11.743Z,74.60
2019-03-01T21:06:41.483Z,75.90
2019-03-01T21:09:11.673Z,73.70
2019-03-01T21:11:42.049Z,74.50
2019-03-01T21:14:12.051Z,75.00
2019-03-01T21:16:44.827Z,74.40
2019-03-01T21:19:13.207Z,75.40
2019-03-01T21:21:43.369Z,74.00
2019-03-01T21:24:13.222Z,74.40
2019-03-01T21:26:44.175Z,75.50
2019-03-01T21:29:15.114Z,75.40
2019-03-01T21:31:45.021Z,74.40
2019-03-01T21:34:15.433Z,75.20
2019-03-01T21:36:45.313Z,74.90
2019-03-01T21:39:15.338Z,74.70
2019-03-01T21:41:45.715Z,76.60
2019-03-01T21:44:15.902Z,75.50
2019-03-01T21:46:46.840Z,75.00
2019-03-01T21:49:17.724Z,75.90
2019-03-01T21:51:56.055Z,76.90
2019-03-01T21:54:26.727Z,75.00
2019-03-01T21:56:57.121Z,73.90
2019-03-01T21:59:27.299Z,75.30
2019-03-01T22:01:57.919Z,75.10
2019-03-01T22:04:29.246Z,76.70
2019-03-01T22:07:01.845Z,75.40
2019-03-01T22:09:32.635Z,75.10
2019-03-01T22:12:03.657Z,75.70
2019-03-01T22:14:34.015Z,78.30
2019-03-01T22:17:04.606Z,77.10
2019-03-01T22:19:53.324Z,76.80
2019-03-01T22:22:24.276Z,75.70
2019-03-01T22:24:58.629Z,76.40
2019-03-01T22:27:27.248Z,75.20
2019-03-01T22:29:58.726Z,75.70
2019-03-01T22:32:30.782Z,76.00
2019-03-01T22:35:03.196Z,74.00
2019-03-01T22:37:32.022Z,74.70
2019-03-01T22:40:02.992Z,76.80
2019-03-01T22:42:33.027Z,75.90
2019-03-01T22:45:02.957Z,76.30
2019-03-01T22:47:36.039Z,75.80
2019-03-01T22:50:06.984Z,75.70
2019-03-01T22:52:36.964Z,74.80
2019-03-01T22:55:07.491Z,75.50
2019-03-01T22:57:37.734Z,76.10
2019-03-01T23:00:19.538Z,75.90
2019-03-01T23:02:48.385Z,76.40
2019-03-01T23:05:18.106Z,75.40
2019-03-01T23:07:47.754Z,75.80
2019-03-01T23:10:18.457Z,75.70
2019-03-01T23:12:49.317Z,75.70
2019-03-01T23:15:18.926Z,75.00
2019-03-01T23:17:48.697Z,74.70
2019-03-01T23:20:18.363Z,74.60
2019-03-01T23:22:48.075Z,74.50
2019-03-01T23:25:17.919Z,75.30
2019-03-01T23:27:48.887Z,75.60
2019-03-01T23:30:18.851Z,75.20
2019-03-01T23:32:48.775Z,74.20
2019-03-01T23:35:20.490Z,75.50
2019-03-01T23:37:51.100Z,75.10
2019-03-01T23:40:21.045Z,75.00
2019-03-01T23:42:53.377Z,75.40
2019-03-01T23:45:23.536Z,75.60
2019-03-01T23:47:54.155Z,75.30
2019-03-01T23:50:24.319Z,75.80
2019-03-01T23:52:54.857Z,75.80
2019-03-01T23:55:25.539Z,75.80
2019-03-01T23:57:55.217Z,75.00
